Flight Track Log - Related Links

Times and Time Zones

All times are in EST time to prevent confusion due to time zone crossing. See the N580HC flight status page for this flight to view local times or setup timezone preferences in your user account.

Time Position Orientation Groundspeed Altitude Reporting Facility
EST Latitude Longitude Course Direction KTS MPH feet Rate Location/Type
Wed 06:42:17 PM 46.2119 -119.0444 106° East 259 298 4,800  Level Seattle Center
Wed 06:43:18 PM 46.1964 -118.9328 101° East 285 328 8,500 2,829 Climbing Seattle Center
Wed 06:44:20 PM 46.1717 -118.8050 106° East 332 382 10,600 2,195 Climbing Seattle Center
Wed 06:45:21 PM 46.1439 -118.6597 105° East 371 427 13,000 2,361 Climbing Seattle Center
Wed 06:46:22 PM 46.1161 -118.4942 104° East 390 449 15,400 2,213 Climbing Seattle Center
Wed 06:47:00 PM 46.0854 -118.1430 106° East  Level Estimated
Wed 06:47:23 PM 46.0872 -118.3397 105° East 401 461 17,500  Level Seattle Center
Wed 06:48:24 PM 46.0603 -118.1831 104° East 404 465 19,200 1,869 Climbing Seattle Center
Wed 06:49:25 PM 46.0286 -118.0181 105° East 423 487 21,300 2,066 Climbing Seattle Center
Wed 06:50:26 PM 45.9958 -117.8489 106° East 438 504 23,400 2,066 Climbing Seattle Center
Wed 06:51:27 PM 45.9633 -117.6783 105° East 444 511 25,500 2,066 Climbing Seattle Center
Wed 06:52:28 PM 45.9300 -117.5061 105° East 448 516 27,600 2,066 Climbing Seattle Center
Wed 06:53:29 PM 45.8972 -117.3344 105° East 449 517 29,700 2,066 Climbing Seattle Center
Wed 06:54:30 PM 45.8642 -117.1644 106° East 446 513 31,800 2,033 Climbing Seattle Center
Wed 06:55:30 PM 45.8308 -116.9997 106° East 436 502 33,800 1,884 Climbing Seattle Center
Wed 06:56:31 PM 45.7908 -116.7994 106° East 437 503 35,600 1,574 Climbing Seattle Center
Wed 06:57:32 PM 45.7575 -116.6325 106° East 438 504 37,000 1,377 Climbing Seattle Center
Wed 06:58:33 PM 45.7228 -116.4631 106° East 444 511 38,400 1,279 Climbing Seattle Center
Wed 06:59:34 PM 45.6889 -116.2961 106° East 441 507 39,600 1,180 Climbing Seattle Center
Wed 07:00:35 PM 45.6539 -116.1311 107° East 436 502 40,800 689 Climbing Seattle Center
Wed 07:01:36 PM 45.6228 -115.9728 106° East 441 507 41,000 98 Climbing Seattle Center
Wed 07:02:37 PM 45.5767 -115.7586 107° East 467 537 41,000  Level Seattle Center
Wed 07:03:38 PM 45.5386 -115.5728 106° East 485 558 41,000  Level Seattle Center
Wed 07:04:39 PM 45.4969 -115.3833 107° East 498 573 41,000  Level Seattle Center
Wed 07:05:40 PM 45.4561 -115.1933 107° East 500 575 41,000  Level Seattle Center
Wed 07:06:41 PM 45.4153 -115.0064 107° East 496 571 41,000  Level Seattle Center
Wed 07:07:42 PM 45.3744 -114.8208 107° East 494 568 41,000  Level Seattle Center
Wed 07:08:43 PM 45.3328 -114.6369 108° East 490 564 41,000  Level Seattle Center
Wed 07:09:44 PM 45.2922 -114.4525 107° East 490 564 41,000  Level Seattle Center
Wed 07:10:45 PM 45.2503 -114.2681 108° East 490 564 41,000  Level Seattle Center
Wed 07:11:46 PM 45.2081 -114.0831 108° East 492 566 41,000  Level Seattle Center
Wed 07:12:47 PM 45.1664 -113.8992 108° East 491 565 41,000  Level Seattle Center
Wed 07:13:48 PM 45.1242 -113.7161 108° East 489 563 41,000  Level Seattle Center
Wed 07:15:19 PM 45.0519 -113.4089 108° East 496 571 41,000  Level Salt Lake Center
Wed 07:16:21 PM 45.0094 -113.2331 109° East 496 571 41,000  Level Salt Lake Center
Wed 07:17:22 PM 44.9683 -113.0572 108° East 494 568 41,000  Level Salt Lake Center
Wed 07:18:24 PM 44.9206 -112.8544 108° East 488 562 41,000  Level Salt Lake Center
Wed 07:19:26 PM 44.8778 -112.6811 109° East 490 564 41,000  Level Salt Lake Center
Wed 07:20:28 PM 44.8286 -112.4803 109° East 487 560 41,000  Level Salt Lake Center
Wed 07:21:30 PM 44.7867 -112.3086 109° East 486 559 41,000  Level Salt Lake Center
Wed 07:22:31 PM 44.7372 -112.1083 109° East 485 558 41,000  Level Salt Lake Center
Wed 07:23:33 PM 44.6933 -111.9350 110° East 490 564 41,000  Level Salt Lake Center
Wed 07:24:35 PM 44.6428 -111.7356 110° East 487 560 41,000  Level Salt Lake Center
Wed 07:25:37 PM 44.5986 -111.5642 110° East 487 560 41,000  Level Salt Lake Center
Wed 07:26:39 PM 44.5514 -111.3767 109° East 494 568 41,000  Level Salt Lake Center
Wed 07:27:40 PM 44.5075 -111.2075 110° East 485 558 41,000  Level Salt Lake Center
Wed 07:28:42 PM 44.4542 -111.0072 110° East 492 566 41,000  Level Salt Lake Center
Wed 07:29:44 PM 44.4094 -110.8361 110° East 489 563 41,000  Level Salt Lake Center
Wed 07:30:46 PM 44.3556 -110.6336 110° East 497 572 41,000  Level Salt Lake Center
Wed 07:31:48 PM 44.3097 -110.4592 110° East 503 579 41,000  Level Salt Lake Center
Wed 07:32:50 PM 44.2564 -110.2597 110° East 495 570 41,000  Level Salt Lake Center
Wed 07:33:52 PM 44.2086 -110.0844 111° Southeast 503 579 41,000  Level Salt Lake Center
Wed 07:34:54 PM 44.1614 -109.9108 111° Southeast 502 578 41,000  Level Salt Lake Center
Wed 07:35:55 PM 44.1058 -109.7125 111° Southeast 495 570 41,000  Level Salt Lake Center
Wed 07:36:57 PM 44.0594 -109.5433 111° Southeast 491 565 41,000  Level Salt Lake Center
Wed 07:37:59 PM 44.0039 -109.3472 111° Southeast 486 559 41,000  Level Salt Lake Center
Wed 07:39:01 PM 43.9542 -109.1700 111° Southeast 493 567 41,000  Level Salt Lake Center
Wed 07:40:03 PM 43.9050 -108.9964 111° Southeast 489 563 41,000  Level Salt Lake Center
Wed 07:41:05 PM 43.8550 -108.8214 112° Southeast 491 565 41,000  Level Salt Lake Center
Wed 07:42:07 PM 43.8050 -108.6472 112° Southeast 492 566 41,000  Level Salt Lake Center
Wed 07:43:09 PM 43.7447 -108.4383 112° Southeast 490 564 41,000  Level Salt Lake Center
Wed 07:44:11 PM 43.6936 -108.2653 112° Southeast 489 563 41,000  Level Salt Lake Center
Wed 07:45:12 PM 43.6417 -108.0914 112° Southeast 492 566 41,000  Level Salt Lake Center
Wed 07:46:14 PM 43.5906 -107.9186 112° Southeast 490 564 41,000  Level Salt Lake Center
Wed 07:47:16 PM 43.5397 -107.7442 112° Southeast 492 566 41,000  Level Salt Lake Center
Wed 07:48:18 PM 43.4872 -107.5703 113° Southeast 494 568 41,000  Level Salt Lake Center
Wed 07:49:20 PM 43.4250 -107.3622 112° Southeast 493 567 41,000  Level Salt Lake Center
Wed 07:50:22 PM 43.3725 -107.1919 113° Southeast 487 560 41,000  Level Salt Lake Center
Wed 07:51:24 PM 43.3203 -107.0217 113° Southeast 486 559 41,000  Level Salt Lake Center
Wed 07:52:25 PM 43.2625 -106.8339 113° Southeast 481 554 41,000  Level Salt Lake Center
Wed 07:53:27 PM 43.2119 -106.6703 113° Southeast 485 558 41,000  Level Salt Lake Center
Wed 07:54:29 PM 43.1606 -106.5058 113° Southeast 491 565 41,000  Level Salt Lake Center
Wed 07:55:31 PM 43.1022 -106.3142 113° Southeast 490 564 41,000  Level Salt Lake Center
Wed 07:56:33 PM 43.0497 -106.1522 114° Southeast 486 559 41,000  Level Salt Lake Center
Wed 07:57:34 PM 42.9886 -105.9650 114° Southeast 484 557 41,000  Level Salt Lake Center
Wed 07:58:41 PM 42.9294 -105.7786 113° Southeast 480 552 41,000  Level Denver Center
Wed 07:59:43 PM 42.8803 -105.6214 113° Southeast 473 544 41,000  Level Denver Center
Wed 08:00:45 PM 42.8203 -105.4411 114° Southeast 468 539 41,000  Level Denver Center
Wed 08:01:47 PM 42.7694 -105.2867 114° Southeast 466 536 41,000  Level Denver Center
Wed 08:02:49 PM 42.7097 -105.1067 114° Southeast 468 539 41,000  Level Denver Center
Wed 08:03:51 PM 42.6586 -104.9519 114° Southeast 470 541 41,000  Level Denver Center
Wed 08:04:53 PM 42.5989 -104.7736 114° Southeast 469 540 41,000  Level Denver Center
Wed 08:05:55 PM 42.5486 -104.6217 114° Southeast 468 539 41,000 -48 Level Denver Center
Wed 08:06:57 PM 42.4906 -104.4486 114° Southeast 471 542 40,900 -629 Descending Denver Center
Wed 08:07:59 PM 42.4378 -104.2947 115° Southeast 472 543 39,700 -1,355 Descending Denver Center
Wed 08:09:01 PM 42.3742 -104.1072 115° Southeast 491 565 38,100 -1,392 Descending Denver Center
Wed 08:10:04 PM 42.3178 -103.9450 115° Southeast 498 573 36,800 -1,392 Descending Denver Center
Wed 08:11:06 PM 42.2514 -103.7514 115° Southeast 507 583 35,200 -871 Descending Denver Center
Wed 08:12:08 PM 42.1925 -103.5858 116° Southeast 512 589 35,000 -1,016 Descending Denver Center
Wed 08:13:10 PM 42.1242 -103.3900 115° Southeast 518 596 33,100 -1,839 Descending Denver Center
Wed 08:14:12 PM 42.0653 -103.2239 115° Southeast 515 593 31,200 -2,032 Descending Denver Center
Wed 08:15:14 PM 41.9975 -103.0281 115° Southeast 517 595 28,900 -1,984 Descending Denver Center
Wed 08:16:16 PM 41.9378 -102.8619 116° Southeast 517 595 27,100 -919 Descending Denver Center
Wed 08:17:18 PM 41.8647 -102.6628 116° Southeast 530 610 27,000 -145 Descending Denver Center
Wed 08:18:20 PM 41.8025 -102.4922 116° Southeast 532 612 26,800 -1,258 Descending Denver Center
Wed 08:19:22 PM 41.7361 -102.3086 116° Southeast 524 603 24,400 -2,323 Descending Denver Center
Wed 08:20:24 PM 41.6722 -102.1253 115° Southeast 488 562 22,000 -2,081 Descending Denver Center
Wed 08:21:26 PM 41.6181 -101.9792 116° Southeast 462 532 20,100 -1,790 Descending Denver Center
Wed 08:22:28 PM 41.5658 -101.8436 117° Southeast 429 494 18,300 -1,839 Descending Denver Center
Wed 08:23:30 PM 41.5119 -101.6883 115° Southeast 414 476 16,300 -1,887 Descending Denver Center
Wed 08:24:32 PM 41.4639 -101.5603 117° Southeast 405 466 14,400 -1,935 Descending Denver Center
Wed 08:25:34 PM 41.4139 -101.4156 115° Southeast 386 444 12,300 -1,935 Descending Denver Center
Wed 08:26:36 PM 41.3747 -101.3044 115° Southeast 356 410 10,400 -1,839 Descending Denver Center
Wed 08:27:38 PM 41.3339 -101.1919 116° Southeast 309 356 8,500 -1,645 Descending Denver Center
Wed 08:28:40 PM 41.3022 -101.1044 116° Southeast 289 333 7,000 -1,355 Descending Denver Center
Wed 08:29:42 PM 41.2694 -101.0125 115° Southeast 263 303 5,700 -1,065 Descending Denver Center
Wed 08:30:44 PM 41.2431 -100.9411 116° Southeast 241 277 4,800 -871 Descending Denver Center

Login

Don't have an account? Register now (free) for customized features, flight alerts, and more!